Alexanders Store, Texas
Current Conditions -  °F | °C
As of 8:55 PM on Thursday 20 Nov 2014 (Local Time) from KOCH Reporting Station
Overcast Overcast  
Wind Chill: 61°   Ceiling: 4600
Heat Index: 61°   Visibility: 10mi
Dew Point: 52°   Wind: 6mph
Humidity: 72%   Direction: 150°SSE
Pressure: 30.13"   Gusts: NA
Location:  31.7022°N, 93.9592°W
Report Text: KOCH 210255Z AUTO 15005KT 10SM BKN046 OVC060 16/11 A3013 RMK AO1 52017
Loading
Personal Weather Stations






























Interactive Weather Map New forecast layout! Learn more

10-Day Weather Forecast

Advertisements
Track Severe Weather on mobile